sensor_id;sensor_type;location;lat;lon;timestamp;temperature;humidity
4223;DHT22;2125;51.436;14.138;2022-09-03T00:00:29;11.10;83.20
4223;DHT22;2125;51.436;14.138;2022-09-03T00:03:01;11.00;82.70
4223;DHT22;2125;51.436;14.138;2022-09-03T00:05:36;10.80;82.80
4223;DHT22;2125;51.436;14.138;2022-09-03T00:08:10;10.60;83.20
4223;DHT22;2125;51.436;14.138;2022-09-03T00:10:44;10.50;83.70
4223;DHT22;2125;51.436;14.138;2022-09-03T00:13:14;10.40;84.00
4223;DHT22;2125;51.436;14.138;2022-09-03T00:15:43;10.30;84.20
4223;DHT22;2125;51.436;14.138;2022-09-03T00:18:11;10.30;84.40
4223;DHT22;2125;51.436;14.138;2022-09-03T00:20:41;10.30;84.50
4223;DHT22;2125;51.436;14.138;2022-09-03T00:23:13;10.30;84.60
4223;DHT22;2125;51.436;14.138;2022-09-03T00:25:45;10.30;84.70
4223;DHT22;2125;51.436;14.138;2022-09-03T00:28:18;10.30;84.70
4223;DHT22;2125;51.436;14.138;2022-09-03T00:30:55;10.30;84.90
4223;DHT22;2125;51.436;14.138;2022-09-03T00:33:28;10.40;84.80
4223;DHT22;2125;51.436;14.138;2022-09-03T00:36:05;10.30;84.60
4223;DHT22;2125;51.436;14.138;2022-09-03T00:38:36;10.30;84.50
4223;DHT22;2125;51.436;14.138;2022-09-03T00:41:07;10.20;84.60
4223;DHT22;2125;51.436;14.138;2022-09-03T00:43:49;10.10;84.70
4223;DHT22;2125;51.436;14.138;2022-09-03T00:46:23;10.10;84.80
4223;DHT22;2125;51.436;14.138;2022-09-03T00:51:52;10.30;84.90
4223;DHT22;2125;51.436;14.138;2022-09-03T00:54:28;10.40;85.20
4223;DHT22;2125;51.436;14.138;2022-09-03T00:57:08;10.40;85.10
4223;DHT22;2125;51.436;14.138;2022-09-03T00:59:42;10.50;85.30
4223;DHT22;2125;51.436;14.138;2022-09-03T01:02:18;10.60;85.00
4223;DHT22;2125;51.436;14.138;2022-09-03T01:04:55;10.60;85.00
4223;DHT22;2125;51.436;14.138;2022-09-03T01:07:33;10.60;84.80
4223;DHT22;2125;51.436;14.138;2022-09-03T01:10:10;10.70;84.80
4223;DHT22;2125;51.436;14.138;2022-09-03T01:12:47;10.90;85.00
4223;DHT22;2125;51.436;14.138;2022-09-03T01:15:21;11.00;85.00
4223;DHT22;2125;51.436;14.138;2022-09-03T01:18:10;11.20;84.90
4223;DHT22;2125;51.436;14.138;2022-09-03T01:20:51;11.30;84.70
4223;DHT22;2125;51.436;14.138;2022-09-03T01:23:47;11.40;84.50
4223;DHT22;2125;51.436;14.138;2022-09-03T01:26:28;11.40;84.30
4223;DHT22;2125;51.436;14.138;2022-09-03T01:29:05;11.50;84.30
4223;DHT22;2125;51.436;14.138;2022-09-03T01:31:37;11.60;84.20
4223;DHT22;2125;51.436;14.138;2022-09-03T01:34:15;11.60;84.00
4223;DHT22;2125;51.436;14.138;2022-09-03T01:36:50;11.50;84.00
4223;DHT22;2125;51.436;14.138;2022-09-03T01:39:25;11.50;84.00
4223;DHT22;2125;51.436;14.138;2022-09-03T01:42:01;11.60;83.90
4223;DHT22;2125;51.436;14.138;2022-09-03T01:44:58;11.50;83.90
4223;DHT22;2125;51.436;14.138;2022-09-03T01:47:39;11.60;83.80
4223;DHT22;2125;51.436;14.138;2022-09-03T01:50:26;11.60;83.70
4223;DHT22;2125;51.436;14.138;2022-09-03T01:53:04;11.70;83.50
4223;DHT22;2125;51.436;14.138;2022-09-03T01:55:42;11.70;83.20
4223;DHT22;2125;51.436;14.138;2022-09-03T01:58:15;11.60;83.20
4223;DHT22;2125;51.436;14.138;2022-09-03T02:00:48;11.50;83.20
4223;DHT22;2125;51.436;14.138;2022-09-03T02:03:17;11.50;83.30
4223;DHT22;2125;51.436;14.138;2022-09-03T02:05:44;11.40;83.30
4223;DHT22;2125;51.436;14.138;2022-09-03T02:08:12;11.40;83.30
4223;DHT22;2125;51.436;14.138;2022-09-03T02:10:41;11.30;83.50
4223;DHT22;2125;51.436;14.138;2022-09-03T02:13:11;11.20;83.60
4223;DHT22;2125;51.436;14.138;2022-09-03T02:15:41;11.20;83.70
4223;DHT22;2125;51.436;14.138;2022-09-03T02:18:15;11.10;83.90
4223;DHT22;2125;51.436;14.138;2022-09-03T02:20:43;11.00;83.90
4223;DHT22;2125;51.436;14.138;2022-09-03T02:23:09;10.90;84.20
4223;DHT22;2125;51.436;14.138;2022-09-03T02:25:38;10.80;84.20
4223;DHT22;2125;51.436;14.138;2022-09-03T02:28:07;10.70;84.30
4223;DHT22;2125;51.436;14.138;2022-09-03T02:30:35;10.60;84.50
4223;DHT22;2125;51.436;14.138;2022-09-03T02:33:01;10.60;84.60
4223;DHT22;2125;51.436;14.138;2022-09-03T02:35:30;10.50;84.80
4223;DHT22;2125;51.436;14.138;2022-09-03T02:37:56;10.40;84.90
4223;DHT22;2125;51.436;14.138;2022-09-03T02:40:23;10.50;85.10
4223;DHT22;2125;51.436;14.138;2022-09-03T02:42:49;10.60;85.10
4223;DHT22;2125;51.436;14.138;2022-09-03T02:45:23;10.60;85.10
4223;DHT22;2125;51.436;14.138;2022-09-03T02:47:54;10.60;85.10
4223;DHT22;2125;51.436;14.138;2022-09-03T02:50:22;10.60;85.00
4223;DHT22;2125;51.436;14.138;2022-09-03T02:52:50;10.60;85.00
4223;DHT22;2125;51.436;14.138;2022-09-03T02:55:18;10.70;84.90
4223;DHT22;2125;51.436;14.138;2022-09-03T02:57:45;10.60;84.80
4223;DHT22;2125;51.436;14.138;2022-09-03T03:00:12;10.60;84.70
4223;DHT22;2125;51.436;14.138;2022-09-03T03:02:39;10.50;84.50
4223;DHT22;2125;51.436;14.138;2022-09-03T03:05:06;10.50;84.60
4223;DHT22;2125;51.436;14.138;2022-09-03T03:07:37;10.50;84.50
4223;DHT22;2125;51.436;14.138;2022-09-03T03:10:06;10.40;84.50
4223;DHT22;2125;51.436;14.138;2022-09-03T03:12:33;10.40;84.60
4223;DHT22;2125;51.436;14.138;2022-09-03T03:15:00;10.40;84.70
4223;DHT22;2125;51.436;14.138;2022-09-03T03:17:27;10.50;84.80
4223;DHT22;2125;51.436;14.138;2022-09-03T03:19:54;10.50;84.80
4223;DHT22;2125;51.436;14.138;2022-09-03T03:22:20;10.50;84.90
4223;DHT22;2125;51.436;14.138;2022-09-03T03:24:47;10.50;84.90
4223;DHT22;2125;51.436;14.138;2022-09-03T03:27:16;10.40;84.90
4223;DHT22;2125;51.436;14.138;2022-09-03T03:29:43;10.40;85.00
4223;DHT22;2125;51.436;14.138;2022-09-03T03:32:09;10.40;84.90
4223;DHT22;2125;51.436;14.138;2022-09-03T03:34:36;10.40;85.00
4223;DHT22;2125;51.436;14.138;2022-09-03T03:37:04;10.30;84.90
4223;DHT22;2125;51.436;14.138;2022-09-03T03:39:31;10.40;85.10
4223;DHT22;2125;51.436;14.138;2022-09-03T03:41:57;10.40;85.10
4223;DHT22;2125;51.436;14.138;2022-09-03T03:44:25;10.50;85.10
4223;DHT22;2125;51.436;14.138;2022-09-03T03:46:52;10.50;85.00
4223;DHT22;2125;51.436;14.138;2022-09-03T03:49:18;10.50;85.00
4223;DHT22;2125;51.436;14.138;2022-09-03T03:51:45;10.60;85.00
4223;DHT22;2125;51.436;14.138;2022-09-03T03:54:12;10.50;85.20
4223;DHT22;2125;51.436;14.138;2022-09-03T03:56:38;10.50;85.10
4223;DHT22;2125;51.436;14.138;2022-09-03T03:59:05;10.60;85.20
4223;DHT22;2125;51.436;14.138;2022-09-03T04:01:33;10.60;85.10
4223;DHT22;2125;51.436;14.138;2022-09-03T04:03:59;10.60;85.20
4223;DHT22;2125;51.436;14.138;2022-09-03T04:06:27;10.60;85.20
4223;DHT22;2125;51.436;14.138;2022-09-03T04:08:54;10.70;85.30
4223;DHT22;2125;51.436;14.138;2022-09-03T04:11:22;10.70;85.10
4223;DHT22;2125;51.436;14.138;2022-09-03T04:13:50;10.70;85.10
4223;DHT22;2125;51.436;14.138;2022-09-03T04:16:18;10.70;85.20
4223;DHT22;2125;51.436;14.138;2022-09-03T04:18:47;10.70;85.00
4223;DHT22;2125;51.436;14.138;2022-09-03T04:21:15;10.70;85.00
4223;DHT22;2125;51.436;14.138;2022-09-03T04:23:44;10.70;84.90
4223;DHT22;2125;51.436;14.138;2022-09-03T04:26:12;10.80;85.00
4223;DHT22;2125;51.436;14.138;2022-09-03T04:28:40;10.70;84.90
4223;DHT22;2125;51.436;14.138;2022-09-03T04:31:08;10.70;84.90
4223;DHT22;2125;51.436;14.138;2022-09-03T04:33:35;10.70;84.90
4223;DHT22;2125;51.436;14.138;2022-09-03T04:36:06;10.70;85.00
4223;DHT22;2125;51.436;14.138;2022-09-03T04:38:34;10.70;85.00
4223;DHT22;2125;51.436;14.138;2022-09-03T04:41:01;10.80;85.00
4223;DHT22;2125;51.436;14.138;2022-09-03T04:43:28;10.70;84.90
4223;DHT22;2125;51.436;14.138;2022-09-03T04:45:56;10.60;85.00
4223;DHT22;2125;51.436;14.138;2022-09-03T04:48:24;10.60;85.10
4223;DHT22;2125;51.436;14.138;2022-09-03T04:50:51;10.70;85.40
4223;DHT22;2125;51.436;14.138;2022-09-03T04:53:20;10.90;85.20
4223;DHT22;2125;51.436;14.138;2022-09-03T04:55:47;11.30;85.00
4223;DHT22;2125;51.436;14.138;2022-09-03T04:58:14;11.70;84.50
4223;DHT22;2125;51.436;14.138;2022-09-03T05:00:41;12.30;83.40
4223;DHT22;2125;51.436;14.138;2022-09-03T05:03:07;12.70;82.00
4223;DHT22;2125;51.436;14.138;2022-09-03T05:05:34;13.20;81.00
4223;DHT22;2125;51.436;14.138;2022-09-03T05:08:01;13.60;79.60
4223;DHT22;2125;51.436;14.138;2022-09-03T05:10:30;13.80;78.60
4223;DHT22;2125;51.436;14.138;2022-09-03T05:12:57;13.70;78.40
4223;DHT22;2125;51.436;14.138;2022-09-03T05:15:24;13.40;78.90
4223;DHT22;2125;51.436;14.138;2022-09-03T05:17:55;13.10;79.80
4223;DHT22;2125;51.436;14.138;2022-09-03T05:20:21;12.80;80.80
4223;DHT22;2125;51.436;14.138;2022-09-03T05:22:49;12.60;81.60
4223;DHT22;2125;51.436;14.138;2022-09-03T05:25:16;12.50;81.90
4223;DHT22;2125;51.436;14.138;2022-09-03T05:27:44;12.50;82.30
4223;DHT22;2125;51.436;14.138;2022-09-03T05:30:12;12.40;82.60
4223;DHT22;2125;51.436;14.138;2022-09-03T05:32:38;12.40;82.90
4223;DHT22;2125;51.436;14.138;2022-09-03T05:35:06;12.40;82.90
4223;DHT22;2125;51.436;14.138;2022-09-03T05:37:33;12.30;83.20
4223;DHT22;2125;51.436;14.138;2022-09-03T05:40:00;12.30;83.30
4223;DHT22;2125;51.436;14.138;2022-09-03T05:42:27;12.30;83.30
4223;DHT22;2125;51.436;14.138;2022-09-03T05:44:55;12.30;83.30
4223;DHT22;2125;51.436;14.138;2022-09-03T05:47:21;12.40;83.10
4223;DHT22;2125;51.436;14.138;2022-09-03T05:49:48;12.50;83.00
4223;DHT22;2125;51.436;14.138;2022-09-03T05:52:14;12.60;82.90
4223;DHT22;2125;51.436;14.138;2022-09-03T05:54:43;12.60;82.70
4223;DHT22;2125;51.436;14.138;2022-09-03T05:57:11;12.60;82.70
4223;DHT22;2125;51.436;14.138;2022-09-03T05:59:38;12.60;82.50
4223;DHT22;2125;51.436;14.138;2022-09-03T06:02:06;12.70;82.50
4223;DHT22;2125;51.436;14.138;2022-09-03T06:04:33;12.80;82.50
4223;DHT22;2125;51.436;14.138;2022-09-03T06:06:59;12.80;82.30
4223;DHT22;2125;51.436;14.138;2022-09-03T06:09:26;12.90;82.30
4223;DHT22;2125;51.436;14.138;2022-09-03T06:11:52;12.90;82.20
4223;DHT22;2125;51.436;14.138;2022-09-03T06:14:19;13.10;81.80
4223;DHT22;2125;51.436;14.138;2022-09-03T06:16:47;13.10;81.50
4223;DHT22;2125;51.436;14.138;2022-09-03T06:19:15;13.10;81.80
4223;DHT22;2125;51.436;14.138;2022-09-03T06:21:43;13.20;81.40
4223;DHT22;2125;51.436;14.138;2022-09-03T06:24:11;13.30;81.50
4223;DHT22;2125;51.436;14.138;2022-09-03T06:26:38;13.50;81.40
4223;DHT22;2125;51.436;14.138;2022-09-03T06:29:05;13.70;81.00
4223;DHT22;2125;51.436;14.138;2022-09-03T06:31:32;14.00;80.30
4223;DHT22;2125;51.436;14.138;2022-09-03T06:34:00;14.20;79.80
4223;DHT22;2125;51.436;14.138;2022-09-03T06:36:28;14.40;78.20
4223;DHT22;2125;51.436;14.138;2022-09-03T06:38:55;14.60;77.80
4223;DHT22;2125;51.436;14.138;2022-09-03T06:41:24;14.70;78.00
4223;DHT22;2125;51.436;14.138;2022-09-03T06:43:51;14.80;77.40
4223;DHT22;2125;51.436;14.138;2022-09-03T06:46:20;14.90;77.20
4223;DHT22;2125;51.436;14.138;2022-09-03T06:48:47;15.00;77.00
4223;DHT22;2125;51.436;14.138;2022-09-03T06:51:16;15.00;76.80
4223;DHT22;2125;51.436;14.138;2022-09-03T06:53:46;14.90;77.10
4223;DHT22;2125;51.436;14.138;2022-09-03T06:56:16;15.00;77.10
4223;DHT22;2125;51.436;14.138;2022-09-03T06:58:44;15.00;76.80
4223;DHT22;2125;51.436;14.138;2022-09-03T07:01:13;15.10;76.70
4223;DHT22;2125;51.436;14.138;2022-09-03T07:03:42;15.20;76.40
4223;DHT22;2125;51.436;14.138;2022-09-03T07:06:10;15.20;76.90
4223;DHT22;2125;51.436;14.138;2022-09-03T07:08:37;15.30;76.90
4223;DHT22;2125;51.436;14.138;2022-09-03T07:11:07;15.40;77.00
4223;DHT22;2125;51.436;14.138;2022-09-03T07:13:34;15.40;76.90
4223;DHT22;2125;51.436;14.138;2022-09-03T07:16:02;15.50;76.50
4223;DHT22;2125;51.436;14.138;2022-09-03T07:18:29;15.60;76.80
4223;DHT22;2125;51.436;14.138;2022-09-03T07:20:59;15.60;76.50
4223;DHT22;2125;51.436;14.138;2022-09-03T07:23:27;15.70;76.90
4223;DHT22;2125;51.436;14.138;2022-09-03T07:25:54;15.80;76.20
4223;DHT22;2125;51.436;14.138;2022-09-03T07:28:23;15.90;76.40
4223;DHT22;2125;51.436;14.138;2022-09-03T07:30:50;16.10;75.20
4223;DHT22;2125;51.436;14.138;2022-09-03T07:33:17;16.20;75.70
4223;DHT22;2125;51.436;14.138;2022-09-03T07:35:44;16.30;75.40
4223;DHT22;2125;51.436;14.138;2022-09-03T07:38:11;16.60;74.80
4223;DHT22;2125;51.436;14.138;2022-09-03T07:40:38;16.80;73.00
4223;DHT22;2125;51.436;14.138;2022-09-03T07:43:04;17.00;72.70
4223;DHT22;2125;51.436;14.138;2022-09-03T07:45:32;17.20;71.50
4223;DHT22;2125;51.436;14.138;2022-09-03T07:47:59;17.40;71.30
4223;DHT22;2125;51.436;14.138;2022-09-03T07:50:25;17.50;70.20
4223;DHT22;2125;51.436;14.138;2022-09-03T07:52:55;17.50;70.90
4223;DHT22;2125;51.436;14.138;2022-09-03T07:55:22;17.70;69.20
4223;DHT22;2125;51.436;14.138;2022-09-03T07:57:49;17.70;69.60
4223;DHT22;2125;51.436;14.138;2022-09-03T08:00:16;17.70;69.10
4223;DHT22;2125;51.436;14.138;2022-09-03T08:02:44;17.80;68.30
4223;DHT22;2125;51.436;14.138;2022-09-03T08:05:10;17.80;68.30
4223;DHT22;2125;51.436;14.138;2022-09-03T08:07:37;18.00;67.40
4223;DHT22;2125;51.436;14.138;2022-09-03T08:10:04;18.10;67.10
4223;DHT22;2125;51.436;14.138;2022-09-03T08:12:31;18.20;66.50
4223;DHT22;2125;51.436;14.138;2022-09-03T08:14:58;18.40;66.10
4223;DHT22;2125;51.436;14.138;2022-09-03T08:17:25;18.50;66.90
4223;DHT22;2125;51.436;14.138;2022-09-03T08:19:52;18.60;65.70
4223;DHT22;2125;51.436;14.138;2022-09-03T08:22:21;18.60;64.40
4223;DHT22;2125;51.436;14.138;2022-09-03T08:24:49;18.70;65.10
4223;DHT22;2125;51.436;14.138;2022-09-03T08:27:20;18.70;63.50
4223;DHT22;2125;51.436;14.138;2022-09-03T08:29:50;18.70;64.70
4223;DHT22;2125;51.436;14.138;2022-09-03T08:32:17;18.80;64.00
4223;DHT22;2125;51.436;14.138;2022-09-03T08:34:44;18.80;63.80
4223;DHT22;2125;51.436;14.138;2022-09-03T08:37:12;18.90;63.60
4223;DHT22;2125;51.436;14.138;2022-09-03T08:39:39;19.00;64.30
4223;DHT22;2125;51.436;14.138;2022-09-03T08:42:25;19.10;63.80
4223;DHT22;2125;51.436;14.138;2022-09-03T08:44:55;19.10;63.70
4223;DHT22;2125;51.436;14.138;2022-09-03T08:47:26;19.20;63.40
4223;DHT22;2125;51.436;14.138;2022-09-03T08:49:56;19.20;62.70
4223;DHT22;2125;51.436;14.138;2022-09-03T08:52:28;19.50;63.60
4223;DHT22;2125;51.436;14.138;2022-09-03T08:55:02;19.50;62.00
4223;DHT22;2125;51.436;14.138;2022-09-03T08:57:31;19.50;62.20
4223;DHT22;2125;51.436;14.138;2022-09-03T09:00:03;19.60;63.20
4223;DHT22;2125;51.436;14.138;2022-09-03T09:02:37;19.70;62.10
4223;DHT22;2125;51.436;14.138;2022-09-03T09:05:11;19.70;62.20
4223;DHT22;2125;51.436;14.138;2022-09-03T09:07:44;19.70;62.10
4223;DHT22;2125;51.436;14.138;2022-09-03T09:10:15;19.80;61.50
4223;DHT22;2125;51.436;14.138;2022-09-03T09:12:50;19.90;61.00
4223;DHT22;2125;51.436;14.138;2022-09-03T09:15:28;19.80;61.00
4223;DHT22;2125;51.436;14.138;2022-09-03T09:18:05;19.80;60.90
4223;DHT22;2125;51.436;14.138;2022-09-03T09:20:40;20.00;61.40
4223;DHT22;2125;51.436;14.138;2022-09-03T09:23:13;20.30;61.00
4223;DHT22;2125;51.436;14.138;2022-09-03T09:25:46;20.50;59.90
4223;DHT22;2125;51.436;14.138;2022-09-03T09:28:16;20.50;60.30
4223;DHT22;2125;51.436;14.138;2022-09-03T09:30:44;20.50;59.80
4223;DHT22;2125;51.436;14.138;2022-09-03T09:33:12;20.50;59.40
4223;DHT22;2125;51.436;14.138;2022-09-03T09:35:39;20.50;60.40
4223;DHT22;2125;51.436;14.138;2022-09-03T09:38:07;20.50;60.20
4223;DHT22;2125;51.436;14.138;2022-09-03T09:40:37;20.40;58.90
4223;DHT22;2125;51.436;14.138;2022-09-03T09:43:09;20.40;59.80
4223;DHT22;2125;51.436;14.138;2022-09-03T09:45:37;20.30;59.10
4223;DHT22;2125;51.436;14.138;2022-09-03T09:48:09;20.20;60.50
4223;DHT22;2125;51.436;14.138;2022-09-03T09:50:38;20.30;61.70
4223;DHT22;2125;51.436;14.138;2022-09-03T09:53:07;20.30;60.50
4223;DHT22;2125;51.436;14.138;2022-09-03T09:55:50;20.50;60.20
4223;DHT22;2125;51.436;14.138;2022-09-03T09:58:19;20.50;60.20
4223;DHT22;2125;51.436;14.138;2022-09-03T10:00:59;20.60;59.90
4223;DHT22;2125;51.436;14.138;2022-09-03T10:03:28;20.50;59.70
4223;DHT22;2125;51.436;14.138;2022-09-03T10:06:04;20.50;60.00
4223;DHT22;2125;51.436;14.138;2022-09-03T10:08:45;20.50;60.40
4223;DHT22;2125;51.436;14.138;2022-09-03T10:11:14;20.70;61.20
4223;DHT22;2125;51.436;14.138;2022-09-03T10:13:44;20.70;59.30
4223;DHT22;2125;51.436;14.138;2022-09-03T10:16:20;20.70;59.90
4223;DHT22;2125;51.436;14.138;2022-09-03T10:18:51;20.80;59.60
4223;DHT22;2125;51.436;14.138;2022-09-03T10:21:23;21.00;59.20
4223;DHT22;2125;51.436;14.138;2022-09-03T10:23:56;21.00;57.80
4223;DHT22;2125;51.436;14.138;2022-09-03T10:26:26;21.10;59.00
4223;DHT22;2125;51.436;14.138;2022-09-03T10:28:57;21.00;58.40
4223;DHT22;2125;51.436;14.138;2022-09-03T10:31:39;21.00;58.00
4223;DHT22;2125;51.436;14.138;2022-09-03T10:34:11;20.90;58.60
4223;DHT22;2125;51.436;14.138;2022-09-03T10:36:46;20.80;58.20
4223;DHT22;2125;51.436;14.138;2022-09-03T10:39:21;20.90;58.30
4223;DHT22;2125;51.436;14.138;2022-09-03T10:41:59;21.00;58.90
4223;DHT22;2125;51.436;14.138;2022-09-03T10:44:43;21.00;58.40
4223;DHT22;2125;51.436;14.138;2022-09-03T10:47:36;21.00;59.40
4223;DHT22;2125;51.436;14.138;2022-09-03T10:50:12;21.10;58.40
4223;DHT22;2125;51.436;14.138;2022-09-03T10:52:54;21.20;58.10
4223;DHT22;2125;51.436;14.138;2022-09-03T10:55:30;21.20;57.00
4223;DHT22;2125;51.436;14.138;2022-09-03T10:58:23;21.20;57.80
4223;DHT22;2125;51.436;14.138;2022-09-03T11:00:55;21.20;58.10
4223;DHT22;2125;51.436;14.138;2022-09-03T11:03:36;21.20;57.00
4223;DHT22;2125;51.436;14.138;2022-09-03T11:06:12;21.20;56.90
4223;DHT22;2125;51.436;14.138;2022-09-03T11:08:44;21.40;57.50
4223;DHT22;2125;51.436;14.138;2022-09-03T11:11:18;21.50;57.90
4223;DHT22;2125;51.436;14.138;2022-09-03T11:13:50;21.50;56.70
4223;DHT22;2125;51.436;14.138;2022-09-03T11:16:22;21.30;56.70
4223;DHT22;2125;51.436;14.138;2022-09-03T11:18:54;21.40;56.90
4223;DHT22;2125;51.436;14.138;2022-09-03T11:21:25;21.30;56.70
4223;DHT22;2125;51.436;14.138;2022-09-03T11:24:03;21.30;56.20
4223;DHT22;2125;51.436;14.138;2022-09-03T11:26:32;21.30;54.80
4223;DHT22;2125;51.436;14.138;2022-09-03T11:29:05;21.10;55.70
4223;DHT22;2125;51.436;14.138;2022-09-03T11:31:44;21.00;55.50
4223;DHT22;2125;51.436;14.138;2022-09-03T11:34:14;20.80;55.20
4223;DHT22;2125;51.436;14.138;2022-09-03T11:36:41;20.70;56.00
4223;DHT22;2125;51.436;14.138;2022-09-03T11:39:18;20.70;57.10
4223;DHT22;2125;51.436;14.138;2022-09-03T11:41:56;21.00;56.60
4223;DHT22;2125;51.436;14.138;2022-09-03T11:44:35;21.00;56.10
4223;DHT22;2125;51.436;14.138;2022-09-03T11:47:13;21.00;57.30
4223;DHT22;2125;51.436;14.138;2022-09-03T11:52:08;21.00;56.90
4223;DHT22;2125;51.436;14.138;2022-09-03T11:54:43;21.10;56.40
4223;DHT22;2125;51.436;14.138;2022-09-03T11:57:12;21.30;57.50
4223;DHT22;2125;51.436;14.138;2022-09-03T11:59:42;21.40;56.20
4223;DHT22;2125;51.436;14.138;2022-09-03T12:02:25;21.60;56.80
4223;DHT22;2125;51.436;14.138;2022-09-03T12:05:08;21.80;55.70
4223;DHT22;2125;51.436;14.138;2022-09-03T12:10:48;22.10;54.10
4223;DHT22;2125;51.436;14.138;2022-09-03T12:13:28;22.00;53.80
4223;DHT22;2125;51.436;14.138;2022-09-03T12:16:21;22.00;53.00
4223;DHT22;2125;51.436;14.138;2022-09-03T12:18:50;22.00;54.60
4223;DHT22;2125;51.436;14.138;2022-09-03T12:21:20;22.00;53.80
4223;DHT22;2125;51.436;14.138;2022-09-03T12:23:48;21.90;53.40
4223;DHT22;2125;51.436;14.138;2022-09-03T12:26:16;21.80;54.40
4223;DHT22;2125;51.436;14.138;2022-09-03T12:28:44;21.80;54.70
4223;DHT22;2125;51.436;14.138;2022-09-03T12:31:16;21.90;54.40
4223;DHT22;2125;51.436;14.138;2022-09-03T12:33:51;22.00;53.90
4223;DHT22;2125;51.436;14.138;2022-09-03T12:36:22;22.00;54.20
4223;DHT22;2125;51.436;14.138;2022-09-03T12:38:49;22.00;53.80
4223;DHT22;2125;51.436;14.138;2022-09-03T12:41:22;22.00;53.70
4223;DHT22;2125;51.436;14.138;2022-09-03T12:43:51;22.10;55.00
4223;DHT22;2125;51.436;14.138;2022-09-03T12:46:23;22.20;53.90
4223;DHT22;2125;51.436;14.138;2022-09-03T12:48:55;22.20;53.60
4223;DHT22;2125;51.436;14.138;2022-09-03T12:51:22;22.10;53.50
4223;DHT22;2125;51.436;14.138;2022-09-03T12:53:50;22.20;54.30
4223;DHT22;2125;51.436;14.138;2022-09-03T12:56:19;22.30;55.40
4223;DHT22;2125;51.436;14.138;2022-09-03T12:58:51;22.40;54.50
4223;DHT22;2125;51.436;14.138;2022-09-03T13:01:24;22.40;53.60
4223;DHT22;2125;51.436;14.138;2022-09-03T13:03:56;22.40;54.30
4223;DHT22;2125;51.436;14.138;2022-09-03T13:06:24;22.40;54.20
4223;DHT22;2125;51.436;14.138;2022-09-03T13:08:54;22.50;53.90
4223;DHT22;2125;51.436;14.138;2022-09-03T13:11:23;22.60;54.70
4223;DHT22;2125;51.436;14.138;2022-09-03T13:14:02;22.80;54.00
4223;DHT22;2125;51.436;14.138;2022-09-03T13:17:02;22.80;53.60
4223;DHT22;2125;51.436;14.138;2022-09-03T13:19:40;22.90;54.60
4223;DHT22;2125;51.436;14.138;2022-09-03T13:22:16;22.80;53.40
4223;DHT22;2125;51.436;14.138;2022-09-03T13:25:07;23.00;53.90
4223;DHT22;2125;51.436;14.138;2022-09-03T13:27:44;23.30;54.30
4223;DHT22;2125;51.436;14.138;2022-09-03T13:30:22;23.60;51.70
4223;DHT22;2125;51.436;14.138;2022-09-03T13:32:59;23.70;51.50
4223;DHT22;2125;51.436;14.138;2022-09-03T13:35:35;23.70;52.30
4223;DHT22;2125;51.436;14.138;2022-09-03T13:38:19;23.50;52.30
4223;DHT22;2125;51.436;14.138;2022-09-03T13:40:50;23.50;51.80
4223;DHT22;2125;51.436;14.138;2022-09-03T13:43:25;23.20;52.30
4223;DHT22;2125;51.436;14.138;2022-09-03T13:45:58;23.20;54.10
4223;DHT22;2125;51.436;14.138;2022-09-03T13:48:32;23.30;53.20
4223;DHT22;2125;51.436;14.138;2022-09-03T13:51:25;23.10;53.90
4223;DHT22;2125;51.436;14.138;2022-09-03T13:54:02;23.20;54.40
4223;DHT22;2125;51.436;14.138;2022-09-03T13:56:46;23.10;53.00
4223;DHT22;2125;51.436;14.138;2022-09-03T13:59:26;23.10;53.00
4223;DHT22;2125;51.436;14.138;2022-09-03T14:02:15;23.00;53.40
4223;DHT22;2125;51.436;14.138;2022-09-03T14:04:53;23.00;54.00
4223;DHT22;2125;51.436;14.138;2022-09-03T14:07:27;23.10;54.10
4223;DHT22;2125;51.436;14.138;2022-09-03T14:10:03;23.20;54.70
4223;DHT22;2125;51.436;14.138;2022-09-03T14:12:38;23.20;53.60
4223;DHT22;2125;51.436;14.138;2022-09-03T14:15:16;23.10;53.90
4223;DHT22;2125;51.436;14.138;2022-09-03T14:17:47;23.10;53.40
4223;DHT22;2125;51.436;14.138;2022-09-03T14:20:22;22.90;53.90
4223;DHT22;2125;51.436;14.138;2022-09-03T14:22:53;22.60;54.00
4223;DHT22;2125;51.436;14.138;2022-09-03T14:25:22;22.30;54.80
4223;DHT22;2125;51.436;14.138;2022-09-03T14:27:53;22.20;55.70
4223;DHT22;2125;51.436;14.138;2022-09-03T14:30:37;22.40;55.60
4223;DHT22;2125;51.436;14.138;2022-09-03T14:33:12;22.40;55.00
4223;DHT22;2125;51.436;14.138;2022-09-03T14:35:55;22.40;54.50
4223;DHT22;2125;51.436;14.138;2022-09-03T14:38:50;22.20;55.60
4223;DHT22;2125;51.436;14.138;2022-09-03T14:41:44;22.20;56.10
4223;DHT22;2125;51.436;14.138;2022-09-03T14:44:26;22.20;56.70
4223;DHT22;2125;51.436;14.138;2022-09-03T14:47:08;22.00;55.90
4223;DHT22;2125;51.436;14.138;2022-09-03T14:49:56;21.90;56.70
4223;DHT22;2125;51.436;14.138;2022-09-03T14:55:34;22.00;57.20
4223;DHT22;2125;51.436;14.138;2022-09-03T14:58:21;22.00;56.40
4223;DHT22;2125;51.436;14.138;2022-09-03T15:00:54;22.00;56.80
4223;DHT22;2125;51.436;14.138;2022-09-03T15:03:45;22.10;57.00
4223;DHT22;2125;51.436;14.138;2022-09-03T15:06:27;22.20;56.10
4223;DHT22;2125;51.436;14.138;2022-09-03T15:09:16;22.10;56.80
4223;DHT22;2125;51.436;14.138;2022-09-03T15:11:49;22.10;55.90
4223;DHT22;2125;51.436;14.138;2022-09-03T15:14:21;22.10;55.80
4223;DHT22;2125;51.436;14.138;2022-09-03T15:16:58;22.20;56.80
4223;DHT22;2125;51.436;14.138;2022-09-03T15:19:44;22.20;56.40
4223;DHT22;2125;51.436;14.138;2022-09-03T15:22:18;22.20;56.40
4223;DHT22;2125;51.436;14.138;2022-09-03T15:25:03;22.00;55.80
4223;DHT22;2125;51.436;14.138;2022-09-03T15:27:52;21.90;56.50
4223;DHT22;2125;51.436;14.138;2022-09-03T15:30:34;21.80;56.10
4223;DHT22;2125;51.436;14.138;2022-09-03T15:33:11;21.70;56.50
4223;DHT22;2125;51.436;14.138;2022-09-03T15:36:05;21.70;56.50
4223;DHT22;2125;51.436;14.138;2022-09-03T15:38:42;21.80;57.50
4223;DHT22;2125;51.436;14.138;2022-09-03T15:41:22;21.90;56.60
4223;DHT22;2125;51.436;14.138;2022-09-03T15:43:50;22.00;56.50
4223;DHT22;2125;51.436;14.138;2022-09-03T15:46:46;22.10;56.60
4223;DHT22;2125;51.436;14.138;2022-09-03T15:49:22;22.20;56.70
4223;DHT22;2125;51.436;14.138;2022-09-03T15:52:01;22.20;55.80
4223;DHT22;2125;51.436;14.138;2022-09-03T15:54:35;22.10;56.40
4223;DHT22;2125;51.436;14.138;2022-09-03T15:57:11;21.90;57.00
4223;DHT22;2125;51.436;14.138;2022-09-03T15:59:47;21.90;56.80
4223;DHT22;2125;51.436;14.138;2022-09-03T16:02:19;21.90;57.30
4223;DHT22;2125;51.436;14.138;2022-09-03T16:05:00;21.80;57.30
4223;DHT22;2125;51.436;14.138;2022-09-03T16:10:36;21.80;57.10
4223;DHT22;2125;51.436;14.138;2022-09-03T16:13:22;22.00;56.70
4223;DHT22;2125;51.436;14.138;2022-09-03T16:15:58;22.30;55.70
4223;DHT22;2125;51.436;14.138;2022-09-03T16:18:29;22.50;55.20
4223;DHT22;2125;51.436;14.138;2022-09-03T16:21:01;22.40;55.10
4223;DHT22;2125;51.436;14.138;2022-09-03T16:23:38;22.30;56.20
4223;DHT22;2125;51.436;14.138;2022-09-03T16:26:10;22.00;56.40
4223;DHT22;2125;51.436;14.138;2022-09-03T16:28:47;21.90;56.50
4223;DHT22;2125;51.436;14.138;2022-09-03T16:31:24;21.80;56.80